Centreville, Canada
Current Conditions -  °F | °C
As of 5:53 PM on Saturday 25 Oct 2014 (Local Time) from KHUL Reporting Station
Overcast Overcast  
Wind Chill: 43°   Ceiling: 4200
Heat Index: 45°   Visibility: 10mi
Dew Point: 41°   Wind: 5mph
Humidity: 86%   Direction: 60°ENE
Pressure: 29.54"   Gusts: NA
Location:  46.43°N, 67.72°W
Report Text: KHUL 252053Z AUTO 06004KT 10SM SCT016 OVC042 07/05 A2954 RMK AO2 SLP008 T00720050 58007
Loading
Personal Weather Stations






























Interactive Weather Map
Tropical Storm Tracking
New forecast layout! Learn more

10-Day Weather Forecast

Advertisements
Track Severe Weather on mobile